Time;durP1;ratioP1;P1;durP2;ratioP2;P2;SDS_P1;SDS_P2;PMS_P1;PMS_P2;Temp;Humidity;BMP_temperature;BMP_pressure;BME280_temperature;BME280_humidity;BME280_pressure;Samples;Min_cycle;Max_cycle;Signal;HPM_P1;HPM_P2
2021/04/17 00:00:05;;;;;;;7.30;4.37;;;5.50;99.90;;;;;;5007493;28;20236;-55
2021/04/17 00:02:57;;;;;;;6.07;4.17;;;5.40;99.90;;;;;;5012887;28;20244;-54
2021/04/17 00:05:24;;;;;;;6.93;3.83;;;5.30;99.90;;;;;;5030346;28;20231;-54
2021/04/17 00:07:53;;;;;;;6.57;3.93;;;5.30;99.90;;;;;;5027423;28;20236;-55
2021/04/17 00:10:20;;;;;;;5.83;3.83;;;5.30;99.90;;;;;;5026731;28;20239;-53
2021/04/17 00:12:48;;;;;;;6.63;4.13;;;5.30;99.90;;;;;;5027011;28;20545;-55
2021/04/17 00:15:15;;;;;;;6.47;4.67;;;5.30;99.90;;;;;;5027211;28;20228;-55
2021/04/17 00:17:46;;;;;;;4.80;3.87;;;5.30;99.90;;;;;;5027287;28;20245;-55
2021/04/17 00:20:15;;;;;;;6.93;3.73;;;5.30;99.90;;;;;;5015120;28;20482;-54
2021/04/17 00:22:42;;;;;;;8.00;3.80;;;5.20;99.90;;;;;;5007165;28;20327;-53
2021/04/17 00:25:13;;;;;;;7.77;3.80;;;5.30;99.90;;;;;;5007587;28;20237;-56
2021/04/17 00:27:40;;;;;;;6.73;3.97;;;5.20;99.90;;;;;;5007395;28;20538;-52
2021/04/17 00:30:10;;;;;;;4.87;3.87;;;5.20;99.90;;;;;;5006389;28;20575;-52
2021/04/17 00:32:37;;;;;;;5.30;4.00;;;5.10;99.90;;;;;;5006154;28;20480;-55
2021/04/17 00:35:06;;;;;;;6.47;4.40;;;5.10;99.90;;;;;;5007453;28;20483;-54
2021/04/17 00:37:34;;;;;;;8.00;4.40;;;5.10;99.90;;;;;;5009168;28;20546;-55
2021/04/17 00:40:01;;;;;;;5.83;3.60;;;5.00;99.90;;;;;;5010379;28;20537;-55
2021/04/17 00:42:30;;;;;;;5.77;4.33;;;4.90;99.90;;;;;;5010155;28;20476;-55
2021/04/17 00:44:57;;;;;;;4.90;3.80;;;5.00;99.90;;;;;;5022253;28;20503;-56
2021/04/17 00:47:25;;;;;;;6.23;4.47;;;5.00;99.90;;;;;;5030742;28;20474;-53
2021/04/17 00:50:00;;;;;;;7.67;4.10;;;4.90;99.90;;;;;;5029174;28;20478;-53
2021/04/17 00:52:28;;;;;;;6.00;4.13;;;4.90;99.90;;;;;;5030360;28;20493;-55
2021/04/17 00:54:57;;;;;;;5.87;4.10;;;5.00;99.90;;;;;;5013046;28;20474;-53
2021/04/17 00:57:24;;;;;;;6.00;4.23;;;5.00;99.90;;;;;;5032467;28;20479;-52
2021/04/17 00:59:53;;;;;;;7.17;4.63;;;4.90;99.90;;;;;;5028375;28;20479;-56
2021/04/17 01:02:29;;;;;;;7.10;3.87;;;4.90;99.90;;;;;;5027794;28;20498;-54
2021/04/17 01:05:00;;;;;;;6.40;4.43;;;4.90;99.90;;;;;;5029599;28;20478;-55
2021/04/17 01:07:33;;;;;;;5.80;4.17;;;4.90;99.90;;;;;;5029986;28;20485;-53
2021/04/17 01:10:07;;;;;;;6.33;4.30;;;4.90;99.90;;;;;;5031999;28;20308;-54
2021/04/17 01:12:39;;;;;;;6.43;3.90;;;4.80;99.90;;;;;;5021429;28;20475;-56
2021/04/17 01:15:11;;;;;;;5.47;4.40;;;4.80;99.90;;;;;;5021848;28;20894;-54
2021/04/17 01:17:40;;;;;;;6.27;4.40;;;4.80;99.90;;;;;;5019518;28;20483;-55
2021/04/17 01:20:17;;;;;;;6.50;4.47;;;4.80;99.90;;;;;;5020598;28;20888;-53
2021/04/17 01:23:03;;;;;;;7.20;4.37;;;4.80;99.90;;;;;;5029533;28;20490;-56
2021/04/17 01:25:41;;;;;;;8.17;4.03;;;4.70;99.90;;;;;;5028982;28;20481;-53
2021/04/17 01:28:09;;;;;;;6.57;4.20;;;4.70;99.90;;;;;;5030010;28;20467;-56
2021/04/17 01:30:37;;;;;;;5.70;4.10;;;4.70;99.90;;;;;;5028401;28;20467;-53
2021/04/17 01:33:04;;;;;;;6.07;4.03;;;4.60;99.90;;;;;;5028902;28;21033;-55
2021/04/17 01:35:33;;;;;;;8.77;4.67;;;4.60;99.90;;;;;;5029726;28;20556;-54
2021/04/17 01:38:19;;;;;;;8.77;4.73;;;4.60;99.90;;;;;;5029413;28;20479;-56
2021/04/17 01:40:50;;;;;;;7.63;4.60;;;4.60;99.90;;;;;;5013844;28;20495;-53
2021/04/17 01:43:22;;;;;;;7.07;4.07;;;4.70;99.90;;;;;;5009431;28;20476;-52
2021/04/17 01:45:51;;;;;;;7.20;4.40;;;4.70;99.90;;;;;;5009657;28;20530;-55
2021/04/17 01:48:20;;;;;;;5.87;4.27;;;4.80;99.90;;;;;;5008272;28;20487;-55
2021/04/17 01:50:53;;;;;;;4.90;3.80;;;4.80;99.90;;;;;;5027866;28;20472;-54
2021/04/17 01:53:25;;;;;;;6.03;4.37;;;4.90;99.90;;;;;;5028848;28;20864;-56
2021/04/17 01:55:55;;;;;;;5.40;4.17;;;5.00;99.90;;;;;;5028990;28;20460;-53
2021/04/17 01:58:26;;;;;;;8.00;4.27;;;5.10;99.90;;;;;;5026507;28;20499;-55
2021/04/17 02:00:55;;;;;;;6.37;4.87;;;5.10;99.90;;;;;;5024590;28;20476;-52
2021/04/17 02:03:27;;;;;;;7.07;4.60;;;5.00;99.90;;;;;;5028513;28;20493;-54
2021/04/17 02:05:56;;;;;;;7.50;4.20;;;4.90;99.90;;;;;;5033194;28;20548;-55
2021/04/17 02:08:24;;;;;;;4.63;3.83;;;4.90;99.90;;;;;;5028823;28;21077;-55
2021/04/17 02:10:52;;;;;;;5.10;4.13;;;4.90;99.90;;;;;;5028521;28;20901;-56
2021/04/17 02:13:21;;;;;;;6.30;4.23;;;5.00;99.90;;;;;;5028832;28;20680;-53
2021/04/17 02:15:49;;;;;;;5.20;3.90;;;4.90;99.90;;;;;;5028833;28;20529;-55
2021/04/17 02:18:25;;;;;;;7.77;3.80;;;4.90;99.90;;;;;;5011221;28;20565;-55
2021/04/17 02:21:03;;;;;;;5.50;4.00;;;4.90;99.90;;;;;;5027005;28;20471;-52
2021/04/17 02:23:31;;;;;;;7.73;4.47;;;4.90;99.90;;;;;;5008551;28;20484;-53
2021/04/17 02:26:00;;;;;;;6.73;4.10;;;4.90;99.90;;;;;;5009022;28;20486;-56
2021/04/17 02:28:29;;;;;;;5.83;4.60;;;5.00;99.90;;;;;;5008910;28;20237;-52
2021/04/17 02:31:02;;;;;;;5.87;4.30;;;4.90;99.90;;;;;;5007815;28;20479;-56
2021/04/17 02:33:30;;;;;;;5.20;4.30;;;4.90;99.90;;;;;;5008422;28;20487;-55
2021/04/17 02:35:58;;;;;;;6.40;4.33;;;5.00;99.90;;;;;;5009526;28;21045;-55
2021/04/17 02:38:25;;;;;;;6.97;3.90;;;5.00;99.90;;;;;;5008536;28;20478;-52
2021/04/17 02:40:53;;;;;;;5.67;4.27;;;4.90;99.90;;;;;;5008144;28;20482;-56
2021/04/17 02:43:21;;;;;;;5.10;4.17;;;4.80;99.90;;;;;;5008528;28;20476;-51
2021/04/17 02:45:49;;;;;;;6.80;4.33;;;4.80;99.90;;;;;;5008454;28;20487;-54
2021/04/17 02:48:16;;;;;;;6.07;4.00;;;4.70;99.90;;;;;;5008707;28;20505;-56
2021/04/17 02:50:44;;;;;;;5.93;4.70;;;4.80;99.90;;;;;;5020887;28;21036;-56
2021/04/17 02:53:15;;;;;;;7.27;4.30;;;4.70;99.90;;;;;;5018269;28;20506;-55
2021/04/17 02:55:46;;;;;;;5.93;4.17;;;4.70;99.90;;;;;;5015553;28;20514;-55
2021/04/17 02:58:17;;;;;;;7.17;4.33;;;4.80;99.90;;;;;;5022689;28;20476;-52
2021/04/17 03:00:45;;;;;;;5.37;4.53;;;4.80;99.90;;;;;;5026974;28;20493;-52
2021/04/17 03:03:12;;;;;;;7.73;4.60;;;4.80;99.90;;;;;;5027851;28;20495;-56
2021/04/17 03:05:40;;;;;;;7.80;4.30;;;4.80;99.90;;;;;;5027831;28;20485;-54
2021/04/17 03:08:08;;;;;;;7.80;4.63;;;4.80;99.90;;;;;;5027609;28;20998;-53
2021/04/17 03:10:35;;;;;;;5.03;4.23;;;4.90;99.90;;;;;;5019319;28;20475;-54
2021/04/17 03:13:03;;;;;;;7.23;4.50;;;5.00;99.90;;;;;;5028017;28;21055;-55
2021/04/17 03:15:31;;;;;;;7.30;4.77;;;5.00;99.90;;;;;;5027593;28;20890;-53
2021/04/17 03:18:00;;;;;;;5.83;4.73;;;4.90;99.90;;;;;;5009964;28;20239;-56
2021/04/17 03:20:28;;;;;;;7.47;4.40;;;4.80;99.90;;;;;;5026514;28;20885;-53
2021/04/17 03:22:55;;;;;;;6.17;4.43;;;4.80;99.90;;;;;;5027777;28;20483;-54
2021/04/17 03:25:23;;;;;;;8.67;5.10;;;4.80;99.90;;;;;;5027767;28;20561;-53
2021/04/17 03:27:50;;;;;;;6.43;4.70;;;4.70;99.90;;;;;;5027545;28;20487;-53
2021/04/17 03:30:26;;;;;;;6.63;4.80;;;5.00;99.90;;;;;;5027022;28;20822;-53
2021/04/17 03:32:54;;;;;;;7.43;4.63;;;5.10;99.90;;;;;;5027337;28;20497;-52
2021/04/17 03:35:23;;;;;;;7.20;4.60;;;5.00;99.90;;;;;;5027799;28;20466;-55
2021/04/17 03:37:50;;;;;;;7.30;4.80;;;4.80;99.90;;;;;;5027652;28;20564;-52
2021/04/17 03:40:19;;;;;;;6.83;4.03;;;4.80;99.90;;;;;;5027414;28;20460;-52
2021/04/17 03:42:46;;;;;;;8.73;5.00;;;4.80;99.90;;;;;;5027205;28;21076;-55
2021/04/17 03:45:15;;;;;;;7.07;4.37;;;4.80;99.90;;;;;;5027622;28;20947;-55
2021/04/17 03:47:42;;;;;;;10.40;4.30;;;5.00;99.90;;;;;;5027737;28;20919;-54
2021/04/17 03:50:12;;;;;;;5.67;4.23;;;5.10;99.90;;;;;;5012328;28;20986;-56
2021/04/17 03:52:41;;;;;;;6.90;4.47;;;5.10;99.90;;;;;;5023814;28;20993;-54
2021/04/17 03:55:14;;;;;;;7.30;5.20;;;5.10;99.90;;;;;;5025061;28;20486;-56
2021/04/17 03:57:44;;;;;;;6.97;4.57;;;5.00;99.90;;;;;;5024615;28;20493;-55
2021/04/17 04:00:18;;;;;;;8.97;4.47;;;4.80;99.90;;;;;;5026989;28;21015;-53
2021/04/17 04:02:45;;;;;;;5.70;4.27;;;4.70;99.90;;;;;;5027147;28;20493;-56
2021/04/17 04:05:13;;;;;;;10.23;4.17;;;4.60;99.90;;;;;;5032640;28;20510;-56
2021/04/17 04:07:42;;;;;;;6.47;4.43;;;4.60;99.90;;;;;;5027341;28;20538;-55
2021/04/17 04:10:12;;;;;;;7.03;4.77;;;4.70;99.90;;;;;;5026847;28;20471;-56
2021/04/17 04:12:41;;;;;;;8.13;4.23;;;4.80;99.90;;;;;;5029187;28;21161;-55
2021/04/17 04:15:10;;;;;;;6.13;4.77;;;4.70;99.90;;;;;;5031173;28;20558;-55
2021/04/17 04:17:37;;;;;;;9.10;5.43;;;4.90;99.90;;;;;;5031012;28;20479;-52
2021/04/17 04:20:07;;;;;;;6.80;5.27;;;4.90;99.90;;;;;;5030022;28;20481;-56
2021/04/17 04:22:36;;;;;;;6.33;4.40;;;4.80;99.90;;;;;;5030058;28;21010;-56
2021/04/17 04:25:10;;;;;;;7.57;4.93;;;4.80;99.90;;;;;;5030880;28;20478;-56
2021/04/17 04:27:38;;;;;;;8.27;5.47;;;4.70;99.90;;;;;;5030883;28;20482;-56
2021/04/17 04:30:10;;;;;;;9.23;5.33;;;4.70;99.90;;;;;;5030260;28;20524;-55
2021/04/17 04:32:38;;;;;;;7.20;4.53;;;4.70;99.90;;;;;;5029760;28;20985;-56
2021/04/17 04:35:07;;;;;;;8.53;5.70;;;4.60;99.90;;;;;;5030237;28;20845;-54
2021/04/17 04:37:39;;;;;;;9.07;4.87;;;4.50;99.90;;;;;;5030436;28;20808;-55
2021/04/17 04:40:10;;;;;;;7.63;4.13;;;4.50;99.90;;;;;;5020822;28;21036;-55
2021/04/17 04:42:38;;;;;;;8.30;4.60;;;4.50;99.90;;;;;;5029319;28;20977;-52
2021/04/17 04:45:09;;;;;;;8.50;4.20;;;4.50;99.90;;;;;;5030602;28;20471;-56
2021/04/17 04:47:36;;;;;;;5.47;3.97;;;4.50;99.90;;;;;;5030004;28;20981;-55
2021/04/17 04:50:06;;;;;;;6.87;3.90;;;4.50;99.90;;;;;;5013058;28;20968;-54
2021/04/17 04:52:33;;;;;;;8.80;4.20;;;4.50;99.90;;;;;;5022343;28;20485;-56
2021/04/17 04:55:01;;;;;;;6.97;3.90;;;4.60;99.90;;;;;;5031075;28;20539;-55
2021/04/17 04:57:30;;;;;;;4.10;3.67;;;4.60;99.90;;;;;;5030938;28;20487;-52
2021/04/17 04:59:57;;;;;;;8.93;3.80;;;4.50;99.90;;;;;;5041744;28;20545;-55
2021/04/17 05:02:24;;;;;;;6.40;3.50;;;4.50;99.90;;;;;;5045878;28;20562;-56
2021/04/17 05:04:52;;;;;;;6.13;3.73;;;4.50;99.90;;;;;;5011133;28;20522;-54
2021/04/17 05:07:23;;;;;;;8.27;4.23;;;4.50;99.90;;;;;;5010459;28;20473;-54
2021/04/17 05:09:50;;;;;;;5.97;3.77;;;4.50;99.90;;;;;;5009717;28;20506;-55
2021/04/17 05:12:17;;;;;;;9.47;4.03;;;4.60;99.90;;;;;;5010058;28;20480;-55
2021/04/17 05:14:45;;;;;;;7.63;3.90;;;4.60;99.90;;;;;;5009611;28;20480;-56
2021/04/17 05:17:18;;;;;;;5.97;3.40;;;4.60;99.90;;;;;;5010008;28;20479;-54
2021/04/17 05:19:46;;;;;;;7.40;3.83;;;4.70;99.90;;;;;;5009864;28;20483;-52
2021/04/17 05:22:13;;;;;;;6.07;3.37;;;4.70;99.90;;;;;;5009508;28;20482;-57
2021/04/17 05:24:40;;;;;;;5.80;3.70;;;4.70;99.90;;;;;;5008906;28;20529;-53
2021/04/17 05:27:08;;;;;;;5.87;3.67;;;4.80;99.90;;;;;;5009107;28;20495;-52
2021/04/17 05:29:36;;;;;;;6.27;3.80;;;4.80;99.90;;;;;;5009398;28;20565;-53
2021/04/17 05:32:05;;;;;;;5.30;3.10;;;4.90;99.90;;;;;;5008906;28;20298;-57
2021/04/17 05:34:33;;;;;;;5.70;3.47;;;4.90;99.90;;;;;;5009739;28;20701;-57
2021/04/17 05:37:00;;;;;;;5.77;3.30;;;4.90;99.90;;;;;;5009989;28;20559;-56
2021/04/17 05:39:28;;;;;;;10.43;4.63;;;5.00;99.90;;;;;;5009914;28;20476;-56
2021/04/17 05:41:55;;;;;;;4.67;3.00;;;5.00;99.90;;;;;;5014115;28;20467;-56
2021/04/17 05:44:23;;;;;;;7.10;3.77;;;5.00;99.90;;;;;;5011561;28;20556;-56
2021/04/17 05:46:50;;;;;;;5.13;3.67;;;5.00;99.90;;;;;;5028962;28;20478;-53
2021/04/17 05:49:19;;;;;;;5.80;3.33;;;5.00;99.90;;;;;;5029370;28;20484;-56
2021/04/17 05:51:46;;;;;;;5.43;3.67;;;5.00;99.90;;;;;;5025218;28;20486;-55
2021/04/17 05:54:14;;;;;;;6.63;3.20;;;5.10;99.90;;;;;;5028747;28;20902;-54
2021/04/17 05:56:41;;;;;;;7.10;3.70;;;5.10;99.90;;;;;;5028879;28;20486;-53
2021/04/17 05:59:17;;;;;;;9.97;3.40;;;5.10;99.90;;;;;;5011439;28;20922;-57
2021/04/17 06:01:47;;;;;;;6.37;3.47;;;5.10;99.90;;;;;;5012456;28;20583;-55
2021/04/17 06:04:15;;;;;;;6.33;3.90;;;5.10;99.90;;;;;;5008735;28;20569;-56
2021/04/17 06:06:43;;;;;;;5.53;3.57;;;5.10;99.90;;;;;;5014928;28;20891;-55
2021/04/17 06:09:11;;;;;;;6.13;3.77;;;5.10;99.90;;;;;;5031824;28;20842;-55
2021/04/17 06:11:42;;;;;;;5.97;3.40;;;5.10;99.90;;;;;;5028275;28;20490;-55
2021/04/17 06:14:09;;;;;;;7.00;3.13;;;5.10;99.90;;;;;;5028909;28;20550;-56
2021/04/17 06:16:36;;;;;;;10.63;3.70;;;5.20;99.90;;;;;;5015768;28;20491;-55
2021/04/17 06:19:06;;;;;;;5.87;3.50;;;5.20;99.90;;;;;;5017350;28;20847;-54
2021/04/17 06:21:36;;;;;;;7.50;3.70;;;5.30;99.90;;;;;;5027538;28;21006;-55
2021/04/17 06:24:12;;;;;;;10.23;3.63;;;5.50;99.90;;;;;;5028429;28;20562;-56
2021/04/17 06:26:39;;;;;;;8.40;3.83;;;5.60;99.90;;;;;;5028508;28;20790;-56
2021/04/17 06:29:06;;;;;;;6.87;3.50;;;5.80;99.90;;;;;;5028505;28;20471;-55
2021/04/17 06:31:34;;;;;;;5.50;3.40;;;5.90;99.90;;;;;;5027584;28;20476;-56
2021/04/17 06:34:01;;;;;;;4.80;3.53;;;6.00;99.90;;;;;;5027956;28;20264;-55
2021/04/17 06:36:29;;;;;;;7.93;3.67;;;6.00;99.90;;;;;;5027640;28;20251;-56
2021/04/17 06:39:28;;;;;;;5.43;3.57;;;6.00;99.90;;;;;;5028449;28;20374;-56
2021/04/17 06:41:59;;;;;;;6.10;3.50;;;6.00;99.90;;;;;;5029544;28;20479;-55
2021/04/17 06:44:28;;;;;;;7.13;3.50;;;6.10;99.90;;;;;;5028782;28;20480;-55
2021/04/17 06:46:56;;;;;;;6.20;3.30;;;6.10;99.90;;;;;;5025799;28;20290;-52
2021/04/17 06:49:26;;;;;;;5.80;3.60;;;6.10;99.90;;;;;;5018998;28;20295;-56
2021/04/17 06:51:55;;;;;;;6.17;3.37;;;6.10;99.90;;;;;;5023184;28;20294;-55
2021/04/17 06:54:28;;;;;;;7.30;4.00;;;6.10;99.90;;;;;;5026681;28;20481;-56
2021/04/17 06:56:55;;;;;;;8.03;3.17;;;6.10;99.90;;;;;;5026464;28;20248;-54
2021/04/17 06:59:24;;;;;;;5.17;3.60;;;6.20;99.90;;;;;;5030441;28;20243;-51
2021/04/17 07:01:52;;;;;;;7.47;3.70;;;6.30;99.90;;;;;;5016056;28;20319;-56
2021/04/17 07:04:19;;;;;;;7.57;3.40;;;6.40;99.90;;;;;;5026801;28;20309;-56
2021/04/17 07:06:46;;;;;;;6.33;3.50;;;6.40;99.90;;;;;;5025701;28;20758;-54
2021/04/17 07:09:14;;;;;;;4.73;3.20;;;6.50;99.90;;;;;;5024805;28;20232;-56
2021/04/17 07:11:42;;;;;;;5.50;3.70;;;6.50;99.90;;;;;;5020538;28;20310;-52
2021/04/17 07:14:14;;;;;;;7.53;3.40;;;6.60;99.90;;;;;;5020314;28;20323;-52
2021/04/17 07:17:00;;;;;;;7.97;3.60;;;6.70;99.90;;;;;;5019143;28;20482;-55
2021/04/17 07:19:53;;;;;;;6.87;3.27;;;6.70;99.90;;;;;;5026245;28;20240;-54
2021/04/17 07:22:24;;;;;;;7.63;3.30;;;6.70;99.90;;;;;;5011890;28;20259;-54
2021/04/17 07:24:54;;;;;;;5.43;3.47;;;6.80;99.90;;;;;;5025070;28;20243;-53
2021/04/17 07:27:37;;;;;;;4.53;3.50;;;6.80;99.90;;;;;;5030666;28;20255;-55
2021/04/17 07:30:26;;;;;;;7.13;3.50;;;6.90;99.90;;;;;;5034896;28;20691;-56
2021/04/17 07:33:11;;;;;;;5.60;3.40;;;6.90;99.90;;;;;;5028120;28;20231;-55
2021/04/17 07:35:43;;;;;;;4.57;3.00;;;6.90;99.90;;;;;;5015415;28;20239;-56
2021/04/17 07:38:15;;;;;;;5.17;3.07;;;7.00;99.90;;;;;;5026653;28;20240;-53
2021/04/17 07:40:46;;;;;;;5.50;3.20;;;7.10;99.90;;;;;;5026216;28;20244;-53
2021/04/17 07:43:17;;;;;;;5.27;3.23;;;7.10;99.90;;;;;;5009890;28;20232;-53
2021/04/17 07:45:45;;;;;;;5.93;3.10;;;7.10;99.90;;;;;;5019423;28;20718;-56
2021/04/17 07:48:24;;;;;;;7.50;3.60;;;7.20;99.90;;;;;;5018313;28;20790;-52
2021/04/17 07:50:53;;;;;;;7.33;3.20;;;7.30;99.90;;;;;;5023808;28;20236;-52
2021/04/17 07:53:30;;;;;;;6.63;3.70;;;7.30;99.90;;;;;;5020000;28;20235;-52
2021/04/17 07:56:30;;;;;;;8.13;3.50;;;7.40;99.90;;;;;;5013475;28;20291;-52
2021/04/17 07:59:01;;;;;;;5.20;3.20;;;7.50;99.90;;;;;;5011741;28;20241;-56
2021/04/17 08:01:31;;;;;;;4.73;3.10;;;7.40;99.90;;;;;;5010238;28;20268;-55
2021/04/17 08:04:02;;;;;;;6.37;3.40;;;7.40;99.90;;;;;;5028294;28;20639;-54
2021/04/17 08:06:30;;;;;;;5.63;3.70;;;7.60;99.90;;;;;;5023198;28;20244;-51
2021/04/17 08:09:00;;;;;;;5.97;3.13;;;7.70;99.90;;;;;;5031214;28;20586;-52
2021/04/17 08:11:31;;;;;;;5.97;3.03;;;7.70;99.90;;;;;;5010463;28;20249;-55
2021/04/17 08:13:59;;;;;;;5.40;3.27;;;7.80;99.90;;;;;;5011367;28;20233;-55
2021/04/17 08:16:26;;;;;;;5.20;2.97;;;8.10;99.90;;;;;;5029578;28;20233;-52
2021/04/17 08:18:54;;;;;;;5.80;3.20;;;8.20;99.90;;;;;;5013834;28;20316;-54
2021/04/17 08:21:22;;;;;;;6.97;3.13;;;8.20;99.90;;;;;;5010492;28;20303;-55
2021/04/17 08:23:52;;;;;;;6.57;3.07;;;8.20;99.90;;;;;;5018997;28;20241;-55
2021/04/17 08:26:20;;;;;;;4.90;3.10;;;8.20;99.90;;;;;;5028278;28;20754;-54
2021/04/17 08:28:51;;;;;;;7.00;3.60;;;8.30;99.90;;;;;;5027313;28;20267;-51
2021/04/17 08:31:29;;;;;;;6.70;3.30;;;8.30;99.90;;;;;;5028408;28;20255;-55
2021/04/17 08:34:21;;;;;;;6.57;3.23;;;8.30;99.90;;;;;;5028891;28;20232;-52
2021/04/17 08:36:51;;;;;;;5.53;3.20;;;8.30;99.90;;;;;;5015613;28;20225;-54
2021/04/17 08:39:42;;;;;;;4.27;3.00;;;8.70;99.90;;;;;;5026830;28;20569;-53
2021/04/17 08:42:16;;;;;;;7.20;3.00;;;9.20;99.90;;;;;;5026372;28;20236;-53
2021/04/17 08:44:46;;;;;;;5.67;2.90;;;9.50;99.90;;;;;;5024584;28;20562;-55
2021/04/17 08:47:46;;;;;;;6.03;3.10;;;9.60;99.90;;;;;;5027141;28;20282;-56
2021/04/17 08:50:32;;;;;;;4.60;2.83;;;10.00;99.90;;;;;;5029957;28;20232;-53
2021/04/17 08:53:03;;;;;;;6.07;3.00;;;10.20;99.90;;;;;;5030478;28;20244;-52
2021/04/17 08:55:48;;;;;;;5.93;2.97;;;10.10;99.90;;;;;;5029974;28;20244;-54
2021/04/17 08:58:19;;;;;;;6.57;3.00;;;10.20;99.90;;;;;;5029794;28;20287;-55
2021/04/17 09:01:06;;;;;;;7.73;3.40;;;10.20;99.90;;;;;;5015090;28;20660;-55
2021/04/17 09:03:44;;;;;;;5.83;3.03;;;10.10;99.90;;;;;;5029737;28;20928;-53
2021/04/17 09:06:43;;;;;;;4.30;2.80;;;10.20;99.90;;;;;;5030438;28;20622;-54
2021/04/17 09:09:31;;;;;;;5.13;3.30;;;10.40;99.90;;;;;;5030263;28;20236;-51
2021/04/17 09:12:28;;;;;;;6.07;3.23;;;10.30;99.90;;;;;;5020220;28;20763;-56
2021/04/17 09:15:05;;;;;;;5.97;3.07;;;10.40;99.90;;;;;;5010518;28;20649;-52
2021/04/17 09:17:44;;;;;;;6.53;3.40;;;10.50;99.90;;;;;;5018432;28;20248;-51
2021/04/17 09:20:39;;;;;;;4.27;3.00;;;10.50;99.90;;;;;;5029521;28;20713;-56
2021/04/17 09:23:07;;;;;;;4.63;2.83;;;10.40;99.90;;;;;;5029333;28;20236;-55
2021/04/17 09:25:45;;;;;;;4.27;2.30;;;10.40;99.90;;;;;;5029873;28;20620;-52
2021/04/17 09:28:16;;;;;;;5.70;2.70;;;10.50;99.90;;;;;;5028388;28;20269;-55
2021/04/17 09:30:50;;;;;;;4.70;2.37;;;10.50;99.90;;;;;;5010878;28;20248;-53
2021/04/17 09:33:18;;;;;;;4.30;2.27;;;10.20;99.90;;;;;;5021797;28;20292;-52
2021/04/17 09:35:46;;;;;;;3.20;2.10;;;10.20;99.90;;;;;;5010984;28;20237;-51
2021/04/17 09:38:16;;;;;;;4.93;2.87;;;10.10;99.90;;;;;;5009649;28;20244;-51
2021/04/17 09:40:47;;;;;;;3.97;2.40;;;9.90;99.90;;;;;;5014282;28;20700;-53
2021/04/17 09:43:29;;;;;;;4.97;2.70;;;9.90;99.90;;;;;;5024568;28;20470;-54
2021/04/17 09:45:58;;;;;;;2.87;2.27;;;9.70;99.90;;;;;;5019509;28;20291;-55
2021/04/17 09:48:26;;;;;;;3.43;2.50;;;9.60;99.90;;;;;;5027283;28;21099;-52
2021/04/17 09:50:56;;;;;;;5.03;2.60;;;9.60;99.90;;;;;;5016987;28;20230;-51
2021/04/17 09:53:31;;;;;;;4.67;2.80;;;9.60;99.90;;;;;;5009633;28;20638;-51
2021/04/17 09:56:02;;;;;;;4.60;2.57;;;9.70;99.90;;;;;;5025838;28;20322;-54
2021/04/17 09:58:35;;;;;;;6.03;2.43;;;9.60;99.90;;;;;;5009270;28;20317;-52
2021/04/17 10:01:14;;;;;;;4.57;2.50;;;9.40;99.90;;;;;;5011353;28;20574;-51
2021/04/17 10:03:43;;;;;;;4.63;2.67;;;9.40;99.90;;;;;;5019906;28;20328;-52
2021/04/17 10:06:28;;;;;;;3.70;2.60;;;9.30;99.90;;;;;;5029417;28;20236;-53
2021/04/17 10:09:11;;;;;;;4.00;2.47;;;9.30;99.90;;;;;;5028801;28;20233;-51
2021/04/17 10:11:41;;;;;;;4.03;2.43;;;9.50;99.90;;;;;;5027895;28;20234;-53
2021/04/17 10:14:10;;;;;;;3.93;2.60;;;9.60;99.90;;;;;;5026910;28;20244;-53
2021/04/17 10:16:40;;;;;;;3.93;2.50;;;9.70;99.90;;;;;;5015586;28;20240;-53
2021/04/17 10:19:10;;;;;;;3.77;1.80;;;9.80;99.90;;;;;;5028664;28;20237;-55
2021/04/17 10:21:40;;;;;;;3.27;1.87;;;9.80;99.90;;;;;;5028029;28;20241;-51
2021/04/17 10:24:33;;;;;;;4.10;2.07;;;9.70;99.90;;;;;;5028925;28;20245;-52
2021/04/17 10:27:04;;;;;;;3.53;2.00;;;9.70;99.90;;;;;;5028784;28;20279;-54
2021/04/17 10:29:42;;;;;;;3.43;1.97;;;9.70;99.90;;;;;;5028289;28;20238;-51
2021/04/17 10:32:14;;;;;;;2.83;2.00;;;9.90;99.90;;;;;;5027325;28;20295;-53
2021/04/17 10:34:44;;;;;;;3.67;2.20;;;10.10;99.90;;;;;;5027963;28;20237;-52
2021/04/17 10:37:15;;;;;;;5.27;2.17;;;10.40;99.90;;;;;;5024286;28;20358;-51
2021/04/17 10:40:02;;;;;;;3.77;2.40;;;10.50;99.90;;;;;;5028429;28;20232;-54
2021/04/17 10:42:48;;;;;;;4.27;2.40;;;10.50;99.90;;;;;;5025791;28;20237;-55
2021/04/17 10:45:23;;;;;;;3.97;2.30;;;10.70;99.90;;;;;;5028672;28;20232;-54
2021/04/17 10:48:01;;;;;;;4.43;2.77;;;11.40;99.90;;;;;;5048134;28;20698;-55
2021/04/17 10:50:35;;;;;;;6.07;2.73;;;11.70;99.90;;;;;;5024238;28;20245;-53
2021/04/17 10:53:07;;;;;;;4.20;2.30;;;11.90;99.90;;;;;;5026652;28;20282;-53
2021/04/17 10:55:39;;;;;;;4.20;2.40;;;12.20;99.90;;;;;;5027405;28;20721;-55
2021/04/17 10:58:23;;;;;;;4.07;2.30;;;12.50;99.90;;;;;;5022413;28;20239;-53
2021/04/17 11:00:55;;;;;;;7.20;2.87;;;12.80;99.90;;;;;;5020224;28;20283;-51
2021/04/17 11:03:25;;;;;;;4.83;2.77;;;12.80;99.90;;;;;;5027850;28;20270;-52
2021/04/17 11:05:52;;;;;;;5.87;2.70;;;13.00;99.90;;;;;;5028232;28;20236;-53
2021/04/17 11:08:26;;;;;;;4.33;2.60;;;13.00;99.90;;;;;;5022197;28;20245;-51
2021/04/17 11:10:55;;;;;;;5.73;3.00;;;13.10;99.90;;;;;;5017984;28;20258;-50
2021/04/17 11:13:33;;;;;;;4.63;2.70;;;13.10;99.90;;;;;;5019214;28;20239;-53
2021/04/17 11:16:01;;;;;;;4.30;2.50;;;13.00;99.90;;;;;;5011961;28;20495;-51
2021/04/17 11:18:36;;;;;;;7.27;3.03;;;13.40;99.90;;;;;;5025020;28;20259;-52
2021/04/17 11:21:13;;;;;;;4.73;2.93;;;13.60;99.90;;;;;;5016182;28;20437;-53
2021/04/17 11:23:47;;;;;;;4.43;2.80;;;13.50;99.90;;;;;;5021254;28;20296;-54
2021/04/17 11:26:21;;;;;;;4.37;3.03;;;13.70;99.90;;;;;;5010382;28;20245;-52
2021/04/17 11:28:53;;;;;;;4.60;2.53;;;13.30;99.90;;;;;;5015227;28;20239;-50
2021/04/17 11:31:25;;;;;;;5.03;2.70;;;13.60;99.90;;;;;;5017849;28;20286;-51
2021/04/17 11:33:54;;;;;;;5.43;2.83;;;13.70;99.90;;;;;;5024566;28;20247;-53
2021/04/17 11:36:23;;;;;;;5.20;3.00;;;13.50;99.90;;;;;;5023562;28;20302;-50
2021/04/17 11:38:53;;;;;;;5.57;2.90;;;13.00;99.90;;;;;;5019883;28;20242;-53
2021/04/17 11:41:21;;;;;;;6.17;3.13;;;12.80;99.90;;;;;;5023126;28;20236;-51
2021/04/17 11:43:49;;;;;;;5.50;2.63;;;12.90;99.90;;;;;;5025694;28;20315;-56
2021/04/17 11:46:20;;;;;;;4.93;2.80;;;13.30;99.90;;;;;;5025420;28;20253;-51
2021/04/17 11:48:51;;;;;;;3.50;3.00;;;13.50;99.90;;;;;;5024410;28;20243;-52
2021/04/17 11:51:19;;;;;;;3.20;2.43;;;13.70;99.90;;;;;;5024137;28;20239;-55
2021/04/17 11:53:47;;;;;;;5.30;2.83;;;14.00;99.90;;;;;;5024571;28;20708;-52
2021/04/17 11:56:16;;;;;;;5.60;2.60;;;14.00;99.90;;;;;;5026320;28;20773;-51
2021/04/17 11:58:44;;;;;;;5.17;2.80;;;13.90;99.90;;;;;;5024761;28;20240;-51
2021/04/17 12:01:13;;;;;;;3.07;2.73;;;14.00;99.90;;;;;;5023785;28;20414;-52
2021/04/17 12:03:41;;;;;;;4.70;2.73;;;13.80;99.90;;;;;;5024833;28;20238;-51
2021/04/17 12:06:09;;;;;;;5.17;2.87;;;14.00;99.90;;;;;;5024974;28;20757;-51
2021/04/17 12:08:36;;;;;;;4.97;2.80;;;14.00;99.90;;;;;;5023551;28;20244;-52
2021/04/17 12:11:05;;;;;;;4.90;2.60;;;14.20;99.90;;;;;;5020705;28;20236;-54
2021/04/17 12:13:34;;;;;;;3.90;2.90;;;14.20;99.90;;;;;;5020249;28;20277;-51
2021/04/17 12:16:04;;;;;;;7.50;3.00;;;13.90;99.90;;;;;;5022997;28;20247;-52
2021/04/17 12:18:32;;;;;;;8.50;2.90;;;13.70;99.90;;;;;;5022930;28;20247;-53
2021/04/17 12:21:00;;;;;;;4.37;2.63;;;13.80;99.90;;;;;;5022665;28;20302;-52
2021/04/17 12:23:27;;;;;;;5.27;2.80;;;13.90;99.90;;;;;;5022883;28;20264;-50
2021/04/17 12:25:55;;;;;;;5.70;3.00;;;14.00;99.90;;;;;;5022244;28;20494;-53
2021/04/17 12:28:22;;;;;;;4.20;2.60;;;14.00;99.90;;;;;;5020256;28;20243;-54
2021/04/17 12:30:55;;;;;;;3.93;2.60;;;14.10;99.90;;;;;;5023454;28;20227;-52
2021/04/17 12:33:23;;;;;;;7.07;2.77;;;13.90;99.90;;;;;;5024144;28;20608;-54
2021/04/17 12:35:51;;;;;;;5.60;2.63;;;14.00;99.90;;;;;;5029634;28;20262;-55
2021/04/17 12:38:19;;;;;;;3.83;2.60;;;13.90;99.90;;;;;;5027766;28;20377;-52
2021/04/17 12:40:49;;;;;;;4.13;2.80;;;14.00;99.90;;;;;;5027823;28;20257;-52
2021/04/17 12:43:17;;;;;;;4.70;2.80;;;14.10;99.90;;;;;;5005458;28;20742;-52
2021/04/17 12:45:44;;;;;;;3.93;2.87;;;14.00;99.90;;;;;;977572;28;10002100;-52
2021/04/17 12:48:14;;;;;;;4.90;2.93;;;13.70;99.90;;;;;;5033941;28;20371;-51
2021/04/17 12:50:42;;;;;;;5.47;3.20;;;13.80;99.90;;;;;;5022743;28;20521;-51
2021/04/17 12:53:10;;;;;;;3.73;2.80;;;13.90;99.90;;;;;;5025469;28;20662;-53
2021/04/17 12:55:37;;;;;;;4.23;2.50;;;13.80;99.90;;;;;;5027045;28;20586;-54
2021/04/17 12:58:04;;;;;;;3.90;2.80;;;13.70;99.90;;;;;;5026703;28;20239;-54
2021/04/17 13:00:32;;;;;;;5.00;2.73;;;13.70;99.90;;;;;;5027146;28;20235;-53
2021/04/17 13:02:59;;;;;;;3.27;2.33;;;13.80;99.90;;;;;;5026440;28;20746;-53
2021/04/17 13:05:28;;;;;;;4.73;3.10;;;13.80;99.90;;;;;;5026699;28;20650;-53
2021/04/17 13:07:55;;;;;;;3.67;2.50;;;13.90;99.90;;;;;;5027419;28;20243;-53
2021/04/17 13:10:22;;;;;;;4.67;2.83;;;14.10;99.90;;;;;;5026157;28;20361;-52
2021/04/17 13:12:50;;;;;;;5.63;2.80;;;14.10;99.90;;;;;;5027321;28;20259;-56